Time;durP1;ratioP1;P1;durP2;ratioP2;P2;SDS_P1;SDS_P2;PMS_P1;PMS_P2;Temp;Humidity;BMP_temperature;BMP_pressure;BME280_temperature;BME280_humidity;BME280_pressure;Samples;Min_cycle;Max_cycle;Signal;HPM_P1;HPM_P2
2023/10/06 00:01:42;;;;;;;5.72;3.60;;;;;;;;;;5073357;28;20666;-75
2023/10/06 00:04:12;;;;;;;8.32;4.78;;;;;;;;;;5074023;28;20299;-75
2023/10/06 00:06:39;;;;;;;9.48;4.70;;;;;;;;;;5074024;28;20218;-75
2023/10/06 00:09:09;;;;;;;7.05;3.40;;;;;;;;;;5073904;28;20190;-75
2023/10/06 00:11:37;;;;;;;5.68;3.55;;;;;;;;;;5073562;28;20205;-75
2023/10/06 00:14:18;;;;;;;4.50;3.55;;;;;;;;;;5073186;28;20317;-75
2023/10/06 00:16:49;;;;;;;6.88;4.25;;;;;;;;;;5073601;28;20637;-75
2023/10/06 00:19:26;;;;;;;21.48;4.30;;;;;;;;;;5073964;28;20182;-75
2023/10/06 00:22:03;;;;;;;7.20;3.97;;;;;;;;;;5073188;28;20189;-75
2023/10/06 00:24:31;;;;;;;6.00;4.10;;;;;;;;;;5073715;28;20178;-75
2023/10/06 00:26:58;;;;;;;6.20;4.35;;;;;;;;;;5073324;28;20279;-75
2023/10/06 00:29:27;;;;;;;6.32;3.58;;;;;;;;;;5073438;28;20280;-75
2023/10/06 00:32:01;;;;;;;5.18;3.40;;;;;;;;;;5073953;28;20190;-75
2023/10/06 00:34:30;;;;;;;6.53;4.63;;;;;;;;;;5073260;28;20637;-75
2023/10/06 00:36:57;;;;;;;5.85;3.47;;;;;;;;;;5073644;28;20194;-75
2023/10/06 00:39:29;;;;;;;4.80;3.50;;;;;;;;;;5073910;28;20190;-75
2023/10/06 00:42:02;;;;;;;4.32;3.55;;;;;;;;;;5073271;28;20197;-75
2023/10/06 00:44:30;;;;;;;5.78;3.70;;;;;;;;;;5073424;28;20575;-75
2023/10/06 00:46:59;;;;;;;6.95;4.10;;;;;;;;;;5072483;28;20222;-75
2023/10/06 00:49:27;;;;;;;7.28;4.35;;;;;;;;;;5073421;28;20277;-75
2023/10/06 00:52:00;;;;;;;8.65;5.30;;;;;;;;;;5073550;28;20194;-75
2023/10/06 00:54:27;;;;;;;6.32;4.45;;;;;;;;;;5072774;28;20236;-75
2023/10/06 00:56:57;;;;;;;5.25;3.90;;;;;;;;;;5073385;28;20189;-75
2023/10/06 00:59:25;;;;;;;10.98;4.13;;;;;;;;;;5073934;28;20601;-75
2023/10/06 01:01:53;;;;;;;7.60;3.65;;;;;;;;;;5073042;28;20710;-75
2023/10/06 01:04:24;;;;;;;6.25;3.60;;;;;;;;;;5073452;28;20244;-75
2023/10/06 01:06:54;;;;;;;5.53;3.25;;;;;;;;;;5073328;28;20206;-75
2023/10/06 01:09:30;;;;;;;6.35;4.22;;;;;;;;;;5072989;28;20193;-75
2023/10/06 01:11:59;;;;;;;7.40;3.70;;;;;;;;;;5072956;28;20273;-75
2023/10/06 01:14:27;;;;;;;4.13;3.10;;;;;;;;;;5073204;28;20263;-75
2023/10/06 01:17:04;;;;;;;4.80;3.67;;;;;;;;;;5073269;28;20194;-75
2023/10/06 01:19:34;;;;;;;10.45;3.97;;;;;;;;;;5073191;28;20527;-75
2023/10/06 01:22:13;;;;;;;5.25;4.47;;;;;;;;;;5073025;28;20229;-75
2023/10/06 01:24:42;;;;;;;5.40;4.05;;;;;;;;;;5072860;28;20212;-75
2023/10/06 01:27:11;;;;;;;5.30;3.50;;;;;;;;;;5072936;28;20304;-75
2023/10/06 01:29:38;;;;;;;11.93;3.95;;;;;;;;;;5072848;28;20190;-75
2023/10/06 01:32:05;;;;;;;6.20;4.00;;;;;;;;;;5073096;28;20194;-75
2023/10/06 01:34:37;;;;;;;6.43;3.83;;;;;;;;;;5073075;28;20232;-75
2023/10/06 01:37:05;;;;;;;4.90;4.00;;;;;;;;;;5072684;28;20182;-75
2023/10/06 01:39:35;;;;;;;8.85;3.42;;;;;;;;;;5072325;28;20210;-75
2023/10/06 01:42:07;;;;;;;4.78;3.45;;;;;;;;;;5072928;28;20197;-75
2023/10/06 01:44:35;;;;;;;4.60;3.35;;;;;;;;;;5073096;28;20182;-75
2023/10/06 01:47:04;;;;;;;6.10;3.30;;;;;;;;;;5073069;28;20668;-75
2023/10/06 01:49:33;;;;;;;5.30;4.32;;;;;;;;;;5073052;28;20194;-75
2023/10/06 01:52:02;;;;;;;5.10;4.13;;;;;;;;;;5072783;28;20190;-75
2023/10/06 01:54:34;;;;;;;6.10;4.22;;;;;;;;;;5072863;28;20191;-75
2023/10/06 01:57:06;;;;;;;4.85;3.55;;;;;;;;;;5072564;28;20183;-75
2023/10/06 01:59:33;;;;;;;6.15;3.72;;;;;;;;;;5075066;28;20175;-75
2023/10/06 02:02:01;;;;;;;6.60;3.58;;;;;;;;;;5075980;28;20247;-75
2023/10/06 02:04:44;;;;;;;6.60;4.97;;;;;;;;;;5076097;28;20667;-75
2023/10/06 02:07:12;;;;;;;9.55;4.78;;;;;;;;;;5076098;28;20199;-75
2023/10/06 02:09:39;;;;;;;7.97;4.07;;;;;;;;;;5076265;28;20202;-75
2023/10/06 02:12:08;;;;;;;4.65;3.47;;;;;;;;;;5076079;28;20583;-75
2023/10/06 02:14:36;;;;;;;12.02;3.38;;;;;;;;;;5076143;28;20226;-75
2023/10/06 02:17:05;;;;;;;4.65;3.45;;;;;;;;;;5076365;28;20204;-75
2023/10/06 02:19:34;;;;;;;4.13;2.85;;;;;;;;;;5076086;28;20186;-75
2023/10/06 02:22:06;;;;;;;4.00;2.90;;;;;;;;;;5075880;28;20201;-75
2023/10/06 02:24:33;;;;;;;5.97;3.10;;;;;;;;;;5076244;28;20206;-75
2023/10/06 02:27:01;;;;;;;4.88;2.83;;;;;;;;;;5075449;28;20249;-75
2023/10/06 02:29:30;;;;;;;5.13;3.35;;;;;;;;;;5075612;28;20670;-75
2023/10/06 02:32:01;;;;;;;4.93;3.35;;;;;;;;;;5075458;28;20186;-75
2023/10/06 02:34:31;;;;;;;5.60;3.58;;;;;;;;;;5075890;28;20182;-75
2023/10/06 02:37:00;;;;;;;5.68;3.70;;;;;;;;;;5075526;28;20183;-75
2023/10/06 02:39:31;;;;;;;4.80;4.15;;;;;;;;;;5075821;28;20248;-75
2023/10/06 02:42:00;;;;;;;4.28;3.35;;;;;;;;;;5075186;28;20186;-75
2023/10/06 02:44:30;;;;;;;5.85;3.78;;;;;;;;;;5075317;28;20226;-75
2023/10/06 02:46:59;;;;;;;6.70;3.95;;;;;;;;;;5075468;28;20704;-75
2023/10/06 02:49:35;;;;;;;5.45;3.95;;;;;;;;;;5075533;28;20190;-75
2023/10/06 02:52:06;;;;;;;6.65;4.07;;;;;;;;;;5075553;28;20182;-75
2023/10/06 02:54:33;;;;;;;5.18;4.30;;;;;;;;;;5075267;28;20633;-75
2023/10/06 02:57:04;;;;;;;8.20;3.70;;;;;;;;;;5075103;28;20648;-75
2023/10/06 02:59:35;;;;;;;6.45;3.80;;;;;;;;;;5074766;28;20189;-75
2023/10/06 03:02:06;;;;;;;5.15;3.85;;;;;;;;;;5075376;28;20185;-75
2023/10/06 03:04:36;;;;;;;5.68;3.85;;;;;;;;;;5075138;28;20519;-75
2023/10/06 03:07:11;;;;;;;5.75;3.67;;;;;;;;;;5074847;28;20388;-75
2023/10/06 03:09:44;;;;;;;6.45;3.40;;;;;;;;;;5074896;28;20178;-75
2023/10/06 03:12:15;;;;;;;5.43;3.85;;;;;;;;;;5074976;28;20217;-75
2023/10/06 03:14:44;;;;;;;5.53;4.07;;;;;;;;;;5074710;28;20695;-75
2023/10/06 03:17:13;;;;;;;7.88;7.07;;;;;;;;;;5075112;28;20198;-75
2023/10/06 03:19:41;;;;;;;7.10;6.40;;;;;;;;;;5074505;28;20734;-75
2023/10/06 03:22:09;;;;;;;7.57;6.18;;;;;;;;;;5075013;28;20273;-75
2023/10/06 03:24:44;;;;;;;5.68;4.75;;;;;;;;;;5074895;28;20255;-75
2023/10/06 03:27:14;;;;;;;5.93;4.07;;;;;;;;;;5074762;28;20202;-75
2023/10/06 03:29:47;;;;;;;5.88;3.80;;;;;;;;;;5074427;28;20182;-75
2023/10/06 03:32:27;;;;;;;4.50;3.75;;;;;;;;;;5074784;28;20182;-75
2023/10/06 03:34:57;;;;;;;5.47;4.35;;;;;;;;;;5066641;28;20185;-75
2023/10/06 03:37:44;;;;;;;7.95;4.00;;;;;;;;;;5074656;28;20549;-75
2023/10/06 03:40:21;;;;;;;5.13;3.45;;;;;;;;;;5074179;28;20175;-74
2023/10/06 03:42:49;;;;;;;5.97;3.80;;;;;;;;;;5054326;28;20194;-75
2023/10/06 03:45:31;;;;;;;5.03;3.65;;;;;;;;;;5054632;28;20191;-75
2023/10/06 03:48:11;;;;;;;5.38;3.60;;;;;;;;;;5059359;28;20694;-75
2023/10/06 03:50:39;;;;;;;5.28;3.22;;;;;;;;;;5073830;28;20671;-75
2023/10/06 03:53:08;;;;;;;5.60;3.45;;;;;;;;;;5073951;28;20229;-75
2023/10/06 03:55:39;;;;;;;4.53;3.40;;;;;;;;;;5074429;28;20252;-75
2023/10/06 03:58:06;;;;;;;3.92;2.85;;;;;;;;;;5074410;28;20572;-75
2023/10/06 04:00:38;;;;;;;4.25;3.13;;;;;;;;;;5073806;28;20225;-75
2023/10/06 04:03:09;;;;;;;5.97;4.00;;;;;;;;;;5073732;28;20259;-76
2023/10/06 04:05:37;;;;;;;5.25;3.90;;;;;;;;;;5074005;28;20262;-75
2023/10/06 04:08:08;;;;;;;5.95;3.75;;;;;;;;;;5074190;28;20221;-75
2023/10/06 04:10:36;;;;;;;4.85;3.17;;;;;;;;;;5073874;28;20622;-75
2023/10/06 04:13:05;;;;;;;4.45;3.50;;;;;;;;;;5073795;28;20233;-75
2023/10/06 04:15:33;;;;;;;3.97;2.85;;;;;;;;;;5073218;28;20174;-75
2023/10/06 04:18:00;;;;;;;4.10;3.10;;;;;;;;;;5073601;28;20731;-75
2023/10/06 04:20:29;;;;;;;5.03;3.70;;;;;;;;;;5073515;28;20189;-75
2023/10/06 04:23:01;;;;;;;4.68;3.13;;;;;;;;;;5073530;28;20240;-75
2023/10/06 04:25:29;;;;;;;5.00;3.55;;;;;;;;;;5073764;28;20213;-75
2023/10/06 04:28:02;;;;;;;5.20;3.63;;;;;;;;;;5073228;28;20214;-75
2023/10/06 04:30:29;;;;;;;5.85;3.80;;;;;;;;;;5073284;28;20612;-75
2023/10/06 04:32:57;;;;;;;4.30;3.30;;;;;;;;;;5073633;28;20292;-75
2023/10/06 04:35:24;;;;;;;5.78;4.03;;;;;;;;;;5073348;28;20645;-75
2023/10/06 04:37:53;;;;;;;7.45;4.63;;;;;;;;;;5073245;28;20252;-75
2023/10/06 04:40:21;;;;;;;5.85;4.10;;;;;;;;;;5073598;28;20189;-75
2023/10/06 04:42:49;;;;;;;4.35;3.33;;;;;;;;;;5073293;28;20412;-75
2023/10/06 04:45:16;;;;;;;4.65;3.20;;;;;;;;;;5073074;28;20193;-75
2023/10/06 04:47:43;;;;;;;4.70;3.45;;;;;;;;;;5073510;28;20217;-76
2023/10/06 04:50:11;;;;;;;4.13;2.85;;;;;;;;;;5073378;28;20191;-76
2023/10/06 04:52:39;;;;;;;4.38;2.50;;;;;;;;;;5073488;28;20386;-76
2023/10/06 04:55:11;;;;;;;4.75;2.88;;;;;;;;;;5073333;28;20202;-76
2023/10/06 04:57:39;;;;;;;4.13;3.08;;;;;;;;;;5073194;28;20188;-75
2023/10/06 05:00:13;;;;;;;4.30;2.55;;;;;;;;;;5073327;28;20500;-76
2023/10/06 05:02:43;;;;;;;6.00;3.38;;;;;;;;;;5072965;28;20179;-76
2023/10/06 05:05:11;;;;;;;5.25;2.67;;;;;;;;;;5073002;28;20214;-75
2023/10/06 05:07:38;;;;;;;7.05;2.95;;;;;;;;;;5073137;28;20546;-75
2023/10/06 05:10:09;;;;;;;5.70;3.65;;;;;;;;;;5072576;28;20640;-75
2023/10/06 05:12:38;;;;;;;5.03;3.50;;;;;;;;;;5072632;28;20178;-75
2023/10/06 05:15:09;;;;;;;4.40;3.10;;;;;;;;;;5070518;28;20305;-75
2023/10/06 05:17:38;;;;;;;6.00;4.93;;;;;;;;;;5072911;28;20236;-75
2023/10/06 05:20:13;;;;;;;5.05;3.72;;;;;;;;;;5073025;28;20205;-75
2023/10/06 05:22:40;;;;;;;7.90;5.50;;;;;;;;;;5072259;28;20186;-76
2023/10/06 05:25:15;;;;;;;7.13;5.75;;;;;;;;;;5071947;28;20272;-75
2023/10/06 05:27:44;;;;;;;10.40;5.35;;;;;;;;;;5071870;28;20267;-75
2023/10/06 05:30:13;;;;;;;6.95;4.95;;;;;;;;;;5071513;28;20249;-75
2023/10/06 05:32:45;;;;;;;5.90;3.95;;;;;;;;;;5052410;28;20216;-75
2023/10/06 05:35:13;;;;;;;4.88;3.88;;;;;;;;;;5055887;28;20183;-75
2023/10/06 05:37:44;;;;;;;5.18;3.70;;;;;;;;;;5056230;28;20549;-75
2023/10/06 05:40:16;;;;;;;5.45;3.20;;;;;;;;;;5056242;28;20225;-75
2023/10/06 05:42:49;;;;;;;6.45;3.92;;;;;;;;;;5064007;28;20220;-75
2023/10/06 05:45:20;;;;;;;6.80;4.05;;;;;;;;;;5076213;28;20517;-75
2023/10/06 05:47:48;;;;;;;7.30;4.25;;;;;;;;;;5075744;28;20300;-75
2023/10/06 05:50:27;;;;;;;6.95;4.45;;;;;;;;;;5075650;28;20194;-75
2023/10/06 05:52:58;;;;;;;8.65;4.68;;;;;;;;;;5076018;28;20190;-75
2023/10/06 05:55:30;;;;;;;8.10;4.38;;;;;;;;;;5075841;28;20299;-75
2023/10/06 05:58:00;;;;;;;6.28;4.38;;;;;;;;;;5069786;28;20269;-75
2023/10/06 06:00:29;;;;;;;6.55;4.35;;;;;;;;;;5055142;28;20199;-75
2023/10/06 06:02:58;;;;;;;6.72;4.60;;;;;;;;;;5055554;28;20253;-75
2023/10/06 06:05:29;;;;;;;7.55;4.90;;;;;;;;;;5055203;28;20199;-75
2023/10/06 06:07:56;;;;;;;9.40;4.80;;;;;;;;;;5055663;28;20230;-75
2023/10/06 06:10:28;;;;;;;7.05;4.57;;;;;;;;;;5056270;28;20201;-75
2023/10/06 06:13:00;;;;;;;7.03;4.15;;;;;;;;;;5074583;28;20664;-75
2023/10/06 06:15:31;;;;;;;11.70;4.78;;;;;;;;;;5075339;28;20640;-75
2023/10/06 06:18:00;;;;;;;5.90;4.50;;;;;;;;;;5075938;28;20232;-75
2023/10/06 06:20:28;;;;;;;6.95;4.55;;;;;;;;;;5074514;28;20178;-75
2023/10/06 06:22:58;;;;;;;9.43;5.15;;;;;;;;;;5074566;28;20187;-75
2023/10/06 06:25:26;;;;;;;7.25;5.45;;;;;;;;;;5075222;28;20269;-75
2023/10/06 06:27:55;;;;;;;6.78;5.05;;;;;;;;;;5075737;28;20570;-75
2023/10/06 06:30:24;;;;;;;9.55;5.10;;;;;;;;;;5075160;28;20221;-75
2023/10/06 06:32:52;;;;;;;8.32;4.22;;;;;;;;;;5076017;28;20189;-76
2023/10/06 06:35:21;;;;;;;6.35;4.30;;;;;;;;;;5075538;28;20323;-75
2023/10/06 06:37:51;;;;;;;7.07;4.30;;;;;;;;;;5075401;28;20198;-75
2023/10/06 06:40:19;;;;;;;5.43;4.22;;;;;;;;;;5075364;28;20197;-76
2023/10/06 06:42:47;;;;;;;6.10;4.75;;;;;;;;;;5075490;28;20663;-76
2023/10/06 06:45:16;;;;;;;4.88;4.18;;;;;;;;;;5075034;28;20372;-76
2023/10/06 06:47:43;;;;;;;7.88;4.50;;;;;;;;;;5075300;28;20186;-76
2023/10/06 06:50:12;;;;;;;5.53;4.88;;;;;;;;;;5075196;28;20193;-76
2023/10/06 06:52:39;;;;;;;6.05;4.55;;;;;;;;;;5075001;28;20281;-76
2023/10/06 06:55:12;;;;;;;5.63;4.70;;;;;;;;;;5075192;28;20276;-76
2023/10/06 06:57:41;;;;;;;6.53;4.77;;;;;;;;;;5074933;28;20214;-76
2023/10/06 07:00:15;;;;;;;6.13;4.50;;;;;;;;;;5074702;28;20447;-76
2023/10/06 07:02:44;;;;;;;6.17;4.13;;;;;;;;;;5075276;28;20769;-75
2023/10/06 07:05:12;;;;;;;6.37;3.80;;;;;;;;;;5075383;28;20520;-76
2023/10/06 07:07:42;;;;;;;8.90;3.57;;;;;;;;;;5075028;28;20432;-76
2023/10/06 07:10:11;;;;;;;5.40;3.60;;;;;;;;;;5075119;28;20425;-76
2023/10/06 07:12:39;;;;;;;5.77;3.23;;;;;;;;;;5075088;28;20494;-76
2023/10/06 07:15:14;;;;;;;4.33;3.30;;;;;;;;;;5074404;28;20471;-76
2023/10/06 07:17:41;;;;;;;4.47;2.83;;;;;;;;;;5075250;28;20425;-76
2023/10/06 07:20:14;;;;;;;5.37;3.73;;;;;;;;;;5071893;28;20447;-76
2023/10/06 07:22:41;;;;;;;6.40;3.30;;;;;;;;;;5074849;28;20436;-76
2023/10/06 07:25:10;;;;;;;5.20;3.40;;;;;;;;;;5074709;28;20439;-76
2023/10/06 07:27:38;;;;;;;6.50;3.40;;;;;;;;;;5074343;28;20448;-76
2023/10/06 07:30:09;;;;;;;5.23;3.30;;;;;;;;;;5074624;28;20587;-76
2023/10/06 07:32:40;;;;;;;4.17;3.33;;;;;;;;;;5074631;28;20775;-76
2023/10/06 07:35:08;;;;;;;5.03;3.00;;;;;;;;;;5074572;28;20753;-76
2023/10/06 07:37:37;;;;;;;6.13;3.73;;;;;;;;;;5074178;28;20435;-76
2023/10/06 07:40:05;;;;;;;6.23;4.20;;;;;;;;;;5074456;28;20464;-76
2023/10/06 07:42:34;;;;;;;5.23;3.40;;;;;;;;;;5073987;28;20437;-76
2023/10/06 07:45:05;;;;;;;5.03;4.40;;;;;;;;;;5074576;28;20449;-77
2023/10/06 07:47:34;;;;;;;7.97;4.27;;;;;;;;;;5073922;28;20458;-77
2023/10/06 07:50:02;;;;;;;8.03;3.43;;;;;;;;;;5074082;28;20807;-77
2023/10/06 07:52:30;;;;;;;4.47;3.40;;;;;;;;;;5073814;28;20444;-77
2023/10/06 07:54:58;;;;;;;7.30;3.63;;;;;;;;;;5074109;28;20436;-76
2023/10/06 07:57:30;;;;;;;5.57;3.43;;;;;;;;;;5073525;28;20899;-77
2023/10/06 07:59:59;;;;;;;3.97;3.30;;;;;;;;;;5073962;28;20444;-77
2023/10/06 08:02:29;;;;;;;4.30;2.90;;;;;;;;;;5073608;28;20440;-77
2023/10/06 08:04:56;;;;;;;6.37;4.33;;;;;;;;;;5074088;28;20432;-76
2023/10/06 08:07:26;;;;;;;7.07;4.20;;;;;;;;;;5073561;28;20436;-77
2023/10/06 08:09:55;;;;;;;6.40;4.40;;;;;;;;;;5073716;28;20464;-76
2023/10/06 08:12:23;;;;;;;5.53;4.30;;;;;;;;;;5073746;28;20941;-76
2023/10/06 08:14:51;;;;;;;6.53;3.97;;;;;;;;;;5073550;28;20551;-77
2023/10/06 08:17:20;;;;;;;5.10;3.70;;;;;;;;;;5073304;28;20448;-77
2023/10/06 08:19:47;;;;;;;6.50;3.93;;;;;;;;;;5073649;28;20436;-76
2023/10/06 08:22:15;;;;;;;6.20;4.50;;;;;;;;;;5073309;28;20477;-77
2023/10/06 08:24:43;;;;;;;7.43;4.50;;;;;;;;;;5073962;28;20439;-77
2023/10/06 08:27:11;;;;;;;5.07;4.10;;;;;;;;;;5073710;28;20440;-77
2023/10/06 08:29:41;;;;;;;4.57;3.80;;;;;;;;;;5073573;28;20476;-77
2023/10/06 08:32:08;;;;;;;7.20;3.80;;;;;;;;;;5073209;28;21059;-77
2023/10/06 08:34:39;;;;;;;8.07;4.13;;;;;;;;;;5073458;28;20436;-77
2023/10/06 08:37:10;;;;;;;18.03;3.93;;;;;;;;;;5073281;28;20503;-77
2023/10/06 08:39:39;;;;;;;6.37;3.93;;;;;;;;;;5073562;28;20427;-77
2023/10/06 08:42:08;;;;;;;5.10;3.43;;;;;;;;;;5073283;28;20440;-77
2023/10/06 08:44:37;;;;;;;4.93;3.60;;;;;;;;;;5073569;28;20448;-77
2023/10/06 08:47:07;;;;;;;7.60;3.10;;;;;;;;;;5073544;28;20432;-77
2023/10/06 08:49:35;;;;;;;5.80;3.13;;;;;;;;;;5073190;28;20559;-77
2023/10/06 08:52:04;;;;;;;4.70;3.70;;;;;;;;;;5072901;28;20993;-77
2023/10/06 08:54:32;;;;;;;6.33;4.40;;;;;;;;;;5073001;28;20989;-77
2023/10/06 08:56:59;;;;;;;3.87;3.17;;;;;;;;;;5073244;28;20467;-77
2023/10/06 08:59:26;;;;;;;5.37;3.60;;;;;;;;;;5070467;28;20440;-77
2023/10/06 09:01:54;;;;;;;7.40;3.73;;;;;;;;;;5073199;28;20451;-77
2023/10/06 09:04:22;;;;;;;4.50;3.37;;;;;;;;;;5073092;28;20592;-77
2023/10/06 09:07:09;;;;;;;4.60;3.60;;;;;;;;;;5073350;28;20433;-77
2023/10/06 09:09:37;;;;;;;5.60;4.27;;;;;;;;;;5075972;28;20467;-77
2023/10/06 09:12:04;;;;;;;5.73;3.23;;;;;;;;;;5077442;28;20848;-77
2023/10/06 09:14:32;;;;;;;6.40;3.60;;;;;;;;;;5077423;28;20463;-77
2023/10/06 09:17:01;;;;;;;5.33;4.10;;;;;;;;;;5077244;28;20482;-77
2023/10/06 09:19:47;;;;;;;5.23;3.30;;;;;;;;;;5077139;28;20523;-77
2023/10/06 09:22:16;;;;;;;6.50;4.03;;;;;;;;;;5076760;28;20416;-74
2023/10/06 09:24:44;;;;;;;5.73;3.17;;;;;;;;;;5077296;28;20436;-74
2023/10/06 09:27:21;;;;;;;4.70;3.33;;;;;;;;;;5076544;28;20436;-74
2023/10/06 09:29:49;;;;;;;4.57;3.50;;;;;;;;;;5077299;28;20442;-75
2023/10/06 09:32:23;;;;;;;4.80;3.47;;;;;;;;;;5076418;28;20432;-74
2023/10/06 09:34:53;;;;;;;4.83;3.37;;;;;;;;;;5076839;28;20438;-74
2023/10/06 09:37:21;;;;;;;7.33;3.73;;;;;;;;;;5077146;28;20425;-75
2023/10/06 09:39:57;;;;;;;5.23;3.53;;;;;;;;;;5076365;28;20468;-75
2023/10/06 09:42:28;;;;;;;6.13;3.40;;;;;;;;;;5076333;28;20459;-75
2023/10/06 09:44:59;;;;;;;4.80;3.93;;;;;;;;;;5076748;28;20448;-75
2023/10/06 09:47:26;;;;;;;7.23;4.20;;;;;;;;;;5076541;28;20428;-75
2023/10/06 09:49:55;;;;;;;5.57;3.80;;;;;;;;;;5076532;28;20441;-75
2023/10/06 09:52:25;;;;;;;5.43;3.33;;;;;;;;;;5076371;28;20770;-75
2023/10/06 09:54:54;;;;;;;5.37;3.83;;;;;;;;;;5076097;28;20794;-75
2023/10/06 09:57:22;;;;;;;5.40;4.30;;;;;;;;;;5076221;28;20445;-75
2023/10/06 09:59:49;;;;;;;5.20;3.70;;;;;;;;;;5076276;28;20593;-75
2023/10/06 10:02:20;;;;;;;5.30;3.90;;;;;;;;;;5075947;28;20440;-75
2023/10/06 10:04:48;;;;;;;4.47;3.80;;;;;;;;;;5076339;28;20431;-75
2023/10/06 10:07:18;;;;;;;5.90;4.30;;;;;;;;;;5076275;28;20463;-75
2023/10/06 10:09:45;;;;;;;7.50;5.13;;;;;;;;;;5075548;28;20466;-75
2023/10/06 10:12:20;;;;;;;5.90;4.50;;;;;;;;;;5076103;28;20497;-75
2023/10/06 10:14:51;;;;;;;5.70;4.77;;;;;;;;;;5076151;28;20516;-75
2023/10/06 10:17:25;;;;;;;6.70;5.50;;;;;;;;;;5076286;28;20425;-75
2023/10/06 10:19:53;;;;;;;6.50;5.10;;;;;;;;;;5075407;28;20463;-75
2023/10/06 10:22:21;;;;;;;6.50;5.70;;;;;;;;;;5075708;28;20854;-75
2023/10/06 10:24:49;;;;;;;5.90;5.10;;;;;;;;;;5075904;28;20830;-75
2023/10/06 10:27:20;;;;;;;13.10;11.30;;;;;;;;;;5075436;28;20526;-75
2023/10/06 10:29:47;;;;;;;7.03;4.90;;;;;;;;;;5075699;28;20461;-75
2023/10/06 10:32:15;;;;;;;8.60;5.10;;;;;;;;;;5075291;28;20440;-76
2023/10/06 10:35:16;;;;;;;7.37;5.93;;;;;;;;;;5075369;28;20436;-76
2023/10/06 10:37:55;;;;;;;7.40;5.80;;;;;;;;;;4993915;28;20973;-75
2023/10/06 10:40:24;;;;;;;6.27;5.50;;;;;;;;;;5065020;28;20514;-75
2023/10/06 10:42:52;;;;;;;7.70;5.67;;;;;;;;;;5075667;28;20436;-75
2023/10/06 10:45:30;;;;;;;6.10;5.23;;;;;;;;;;5075749;28;20505;-75
2023/10/06 10:47:58;;;;;;;5.70;5.03;;;;;;;;;;5075562;28;20435;-75
2023/10/06 10:50:28;;;;;;;6.27;4.57;;;;;;;;;;5075188;28;20630;-75
2023/10/06 10:52:56;;;;;;;5.30;4.57;;;;;;;;;;5075428;28;20458;-75
2023/10/06 10:55:26;;;;;;;9.37;5.70;;;;;;;;;;5075071;28;20997;-75
2023/10/06 10:57:53;;;;;;;4.93;4.33;;;;;;;;;;5074985;28;20433;-75
2023/10/06 11:00:21;;;;;;;6.57;5.40;;;;;;;;;;5075253;28;20543;-75
2023/10/06 11:03:04;;;;;;;6.73;4.90;;;;;;;;;;5075229;28;20511;-75
2023/10/06 11:05:32;;;;;;;6.63;4.80;;;;;;;;;;5072789;28;20451;-75
2023/10/06 11:08:01;;;;;;;6.30;5.23;;;;;;;;;;5075135;28;20466;-75
2023/10/06 11:10:29;;;;;;;5.90;5.00;;;;;;;;;;5074806;28;20428;-76
2023/10/06 11:13:11;;;;;;;7.03;6.30;;;;;;;;;;5074673;28;20525;-75
2023/10/06 11:15:38;;;;;;;5.60;4.97;;;;;;;;;;5074648;28;20440;-75
2023/10/06 11:18:06;;;;;;;6.83;5.53;;;;;;;;;;5074826;28;20451;-75
2023/10/06 11:20:38;;;;;;;7.93;6.20;;;;;;;;;;5074751;28;20631;-75
2023/10/06 11:23:08;;;;;;;6.70;5.57;;;;;;;;;;5074511;28;20474;-75
2023/10/06 11:25:37;;;;;;;8.20;6.07;;;;;;;;;;5074386;28;20968;-75
2023/10/06 11:28:05;;;;;;;8.40;6.13;;;;;;;;;;5072989;28;20436;-75
2023/10/06 11:30:32;;;;;;;6.70;5.53;;;;;;;;;;5071906;28;20954;-75
2023/10/06 11:33:02;;;;;;;7.23;5.73;;;;;;;;;;5072186;28;20468;-75
2023/10/06 11:35:29;;;;;;;5.20;4.47;;;;;;;;;;5056582;28;20434;-75
2023/10/06 11:37:57;;;;;;;8.33;4.73;;;;;;;;;;5062064;28;20433;-75
2023/10/06 11:40:26;;;;;;;5.57;4.80;;;;;;;;;;5073888;28;20487;-75
2023/10/06 11:42:53;;;;;;;6.30;5.50;;;;;;;;;;5073626;28;20436;-75
2023/10/06 11:45:25;;;;;;;7.67;5.97;;;;;;;;;;5067334;28;20440;-75
2023/10/06 11:47:53;;;;;;;6.17;5.40;;;;;;;;;;5073311;28;20510;-75
2023/10/06 11:50:24;;;;;;;6.50;4.87;;;;;;;;;;5073969;28;20432;-76
2023/10/06 11:52:51;;;;;;;5.00;4.27;;;;;;;;;;5074208;28;20856;-75
2023/10/06 11:55:34;;;;;;;5.53;4.27;;;;;;;;;;5073862;28;21014;-75
2023/10/06 11:58:04;;;;;;;6.53;5.30;;;;;;;;;;5054041;28;20453;-75
2023/10/06 12:00:39;;;;;;;7.37;4.70;;;;;;;;;;5054172;28;20773;-75
2023/10/06 12:03:08;;;;;;;6.03;4.50;;;;;;;;;;5054006;28;20425;-75
2023/10/06 12:05:36;;;;;;;8.10;5.20;;;;;;;;;;5053640;28;20520;-76
2023/10/06 12:08:04;;;;;;;5.97;5.10;;;;;;;;;;5053894;28;20559;-75
2023/10/06 12:10:33;;;;;;;7.53;4.97;;;;;;;;;;5054027;28;20482;-75
2023/10/06 12:13:05;;;;;;;5.97;5.37;;;;;;;;;;5053338;28;20465;-75
2023/10/06 12:15:32;;;;;;;6.30;4.83;;;;;;;;;;5053397;28;20430;-75
2023/10/06 12:18:00;;;;;;;6.43;5.70;;;;;;;;;;5053206;28;20444;-75
2023/10/06 12:20:29;;;;;;;6.53;5.63;;;;;;;;;;5053335;28;20460;-75
2023/10/06 12:22:56;;;;;;;6.60;5.13;;;;;;;;;;5053652;28;20441;-75
2023/10/06 12:25:24;;;;;;;7.80;4.33;;;;;;;;;;5053241;28;20429;-75
2023/10/06 12:27:56;;;;;;;6.40;4.70;;;;;;;;;;5053507;28;20459;-75
2023/10/06 12:30:25;;;;;;;7.50;4.80;;;;;;;;;;5053226;28;20520;-75
2023/10/06 12:32:54;;;;;;;5.87;4.10;;;;;;;;;;5053469;28;20465;-75
2023/10/06 12:35:22;;;;;;;6.87;4.90;;;;;;;;;;5053608;28;20653;-75
2023/10/06 12:37:52;;;;;;;7.30;4.47;;;;;;;;;;5053178;28;20524;-75
2023/10/06 12:40:19;;;;;;;6.27;5.20;;;;;;;;;;5053702;28;20461;-75
2023/10/06 12:42:46;;;;;;;6.67;5.00;;;;;;;;;;5053241;28;20441;-75
2023/10/06 12:45:18;;;;;;;7.10;5.50;;;;;;;;;;5053329;28;20735;-75
2023/10/06 12:47:46;;;;;;;12.13;4.70;;;;;;;;;;5053428;28;20475;-75
2023/10/06 12:50:16;;;;;;;7.00;5.30;;;;;;;;;;5052921;28;20468;-75
2023/10/06 12:52:44;;;;;;;7.10;5.17;;;;;;;;;;5052951;28;20421;-75
2023/10/06 12:55:12;;;;;;;6.70;5.40;;;;;;;;;;5052894;28;20444;-75
2023/10/06 12:57:40;;;;;;;5.57;4.60;;;;;;;;;;5053132;28;20429;-75
2023/10/06 13:00:08;;;;;;;6.93;5.33;;;;;;;;;;5053097;28;20568;-75
2023/10/06 13:02:37;;;;;;;8.03;5.00;;;;;;;;;;5053139;28;20429;-75
2023/10/06 13:05:08;;;;;;;7.30;5.17;;;;;;;;;;5052707;28;20437;-75
2023/10/06 13:07:36;;;;;;;7.00;5.00;;;;;;;;;;5052779;28;20429;-74
2023/10/06 13:10:06;;;;;;;7.30;4.50;;;;;;;;;;5052728;28;20436;-75
2023/10/06 13:12:35;;;;;;;6.30;4.30;;;25.00;38.30;;;;;;5052961;28;20461;-77
2023/10/06 13:15:06;;;;;;;6.80;5.20;;;;;;;;;;5053162;28;20503;-77
2023/10/06 13:17:34;;;;;;;7.87;4.33;;;;;;;;;;5052942;28;20426;-77
2023/10/06 13:20:07;;;;;;;6.83;4.20;;;35.80;17.80;;;;;;5052518;28;20516;-77
2023/10/06 13:22:35;;;;;;;8.93;4.90;;;33.10;20.00;;;;;;5052660;28;20912;-77
2023/10/06 13:25:03;;;;;;;11.67;5.53;;;32.40;22.10;;;;;;5053039;28;20442;-77
2023/10/06 13:27:31;;;;;;;9.80;5.67;;;31.80;22.00;;;;;;5052800;28;20433;-77
2023/10/06 13:29:58;;;;;;;6.47;4.30;;;31.40;22.70;;;;;;5052492;28;20492;-77
2023/10/06 13:32:26;;;;;;;7.37;4.60;;;31.00;23.50;;;;;;5052470;28;20433;-77
2023/10/06 13:34:54;;;;;;;6.97;4.07;;;30.60;24.30;;;;;;5053031;28;20448;-77
2023/10/06 13:37:23;;;;;;;6.10;4.43;;;30.30;24.30;;;;;;5053122;28;20536;-77
2023/10/06 13:39:50;;;;;;;6.07;3.80;;;29.90;25.00;;;;;;5052275;28;20978;-76
2023/10/06 13:42:17;;;;;;;11.87;4.50;;;;;;;;;;5064748;28;20467;-77
2023/10/06 13:44:44;;;;;;;10.07;4.57;;;29.60;25.20;;;;;;5072627;28;20483;-77
2023/10/06 13:47:11;;;;;;;5.97;4.50;;;29.10;25.70;;;;;;5072398;28;20512;-77
2023/10/06 13:49:40;;;;;;;7.33;4.60;;;28.70;26.60;;;;;;5072635;28;20794;-77
2023/10/06 13:52:10;;;;;;;8.93;5.13;;;;;;;;;;5072233;28;20441;-77
2023/10/06 13:54:38;;;;;;;7.27;4.77;;;;;;;;;;5074072;28;20452;-77
2023/10/06 13:57:07;;;;;;;13.00;4.97;;;;;;;;;;5076398;28;20596;-77
2023/10/06 13:59:35;;;;;;;5.10;4.03;;;;;;;;;;5076000;28;20922;-77
2023/10/06 14:02:03;;;;;;;10.37;4.20;;;;;;;;;;5076593;28;20534;-77
2023/10/06 14:04:30;;;;;;;8.93;4.60;;;;;;;;;;5075748;28;20468;-77
2023/10/06 14:06:57;;;;;;;9.13;4.50;;;;;;;;;;5075797;28;20907;-77
2023/10/06 14:09:25;;;;;;;7.67;4.63;;;;;;;;;;5076062;28;20459;-76
2023/10/06 14:11:54;;;;;;;13.23;4.73;;;;;;;;;;5076189;28;20455;-77
2023/10/06 14:17:13;;;;;;;8.13;4.50;;;;;;;;;;5076021;28;21006;-77
2023/10/06 14:19:40;;;;;;;7.10;4.50;;;;;;;;;;5076065;28;20511;-77
2023/10/06 14:22:08;;;;;;;7.50;4.60;;;;;;;;;;5075838;28;20472;-77
2023/10/06 14:24:39;;;;;;;7.27;4.27;;;;;;;;;;5075857;28;20429;-77
2023/10/06 14:27:10;;;;;;;8.83;4.67;;;;;;;;;;5075440;28;20428;-77
2023/10/06 14:29:37;;;;;;;5.73;4.20;;;;;;;;;;5075611;28;21002;-77
2023/10/06 14:32:18;;;;;;;8.83;4.97;;;;;;;;;;5075786;28;20486;-77
2023/10/06 14:34:58;;;;;;;9.80;4.87;;;;;;;;;;5075803;28;20432;-77
2023/10/06 14:37:39;;;;;;;7.13;4.90;;;;;;;;;;5075399;28;20424;-77
2023/10/06 14:48:27;;;;;;;7.40;4.07;;;;;;;;;;5075251;28;20454;-77
2023/10/06 14:50:57;;;;;;;6.43;4.07;;;;;;;;;;5075515;28;20429;-77
2023/10/06 14:53:25;;;;;;;7.07;3.47;;;;;;;;;;5075391;28;20440;-77
2023/10/06 14:55:53;;;;;;;8.83;4.10;;;;;;;;;;5074967;28;20502;-77
2023/10/06 14:58:21;;;;;;;10.80;4.20;;;;;;;;;;5075356;28;20432;-77
2023/10/06 15:00:49;;;;;;;5.77;4.00;;;;;;;;;;5074835;28;20504;-77
2023/10/06 15:03:19;;;;;;;5.40;3.13;;;;;;;;;;5075429;28;20437;-77
2023/10/06 15:05:48;;;;;;;6.30;3.80;;;;;;;;;;5074070;28;20859;-77